Date,TemperatureHighF,TemperatureAvgF,TemperatureLowF,DewpointHighF,DewpointAvgF,DewpointLowF,HumidityHigh,HumidityAvg,HumidityLow,PressureMaxIn,PressureMinIn,WindSpeedMaxMPH,WindSpeedAvgMPH,GustSpeedMaxMPH,PrecipitationSumIn
2013-1-1,52.6,39.0,27.8,29.7,26.9,20.3,93,65,28,30.23,30.07,0,-999,0,0.00
2013-1-2,59.5,44.2,29.5,29.5,26.7,24.2,89,54,26,30.13,29.97,0,-999,0,0.00
2013-1-3,60.6,47.7,33.3,31.5,27.6,23.9,79,47,29,30.19,30.00,0,-999,0,0.00
2013-1-4,57.6,46.5,37.3,30.6,28.9,27.3,70,51,34,30.27,30.14,0,-999,0,0.00
2013-1-5,62.7,47.0,36.8,31.4,27.8,16.5,73,50,16,30.31,30.17,0,-999,0,0.00
2013-1-6,66.0,50.4,37.5,27.2,22.8,19.4,64,36,17,30.21,29.95,0,-999,0,0.00
2013-1-7,56.9,43.3,30.4,29.1,26.7,24.5,78,54,32,29.98,29.82,0,-999,0,0.00
2013-1-8,63.0,44.3,28.8,28.5,25.3,22.2,82,51,21,30.11,29.92,0,-999,0,0.00
2013-1-9,70.8,49.8,34.1,24.4,21.1,17.7,64,37,13,30.17,30.05,0,-999,0,0.00
2013-1-10,68.5,55.0,42.4,37.0,23.5,20.4,70,30,18,30.06,29.83,0,-999,0,0.00
2013-1-11,48.5,39.6,27.0,37.0,23.7,10.9,89,56,27,30.09,29.93,0,-999,0,0.00
2013-1-12,49.7,33.7,20.4,17.7,13.6,8.2,80,47,22,30.11,29.96,0,-999,0,0.00
2013-1-13,48.5,33.3,22.1,13.7,11.3,6.0,64,42,18,30.11,29.97,0,-999,0,0.00
2013-1-14,44.3,30.4,18.8,13.6,7.9,2.5,70,41,21,30.21,30.04,0,-999,0,0.00
2013-1-15,46.5,30.3,16.5,8.0,3.9,-1.7,60,35,13,30.33,30.18,0,-999,0,0.00
2013-1-16,59.2,40.4,22.4,15.7,8.9,4.0,47,29,14,30.34,30.18,0,-999,0,0.00
2013-1-17,69.5,55.5,41.1,19.1,15.4,11.8,33,21,13,30.25,30.12,0,-999,0,0.00
2013-1-18,72.6,56.1,41.4,23.6,19.8,15.7,46,25,11,30.23,30.10,0,-999,0,0.00
2013-1-19,75.3,54.4,36.7,26.2,21.8,17.0,48,30,12,30.24,30.11,0,-999,0,0.00
2013-1-20,77.6,56.1,41.5,37.6,27.7,23.5,51,35,19,30.20,30.02,0,-999,0,0.00
2013-1-21,78.3,57.6,42.0,37.2,30.6,26.3,53,38,21,30.14,30.02,0,-999,0,0.00
2013-1-22,80.3,60.1,41.8,36.7,32.0,28.0,64,37,17,30.20,30.08,0,-999,0,0.00
2013-1-23,81.0,61.9,45.9,35.5,32.3,29.3,53,34,18,30.23,30.11,0,-999,0,0.00
2013-1-24,63.8,59.3,55.0,53.8,43.7,33.6,90,58,37,30.27,30.17,0,-999,0,0.00
2013-1-25,76.8,63.1,51.3,50.3,47.5,45.2,80,59,34,30.22,30.01,0,-999,0,0.00
2013-1-26,68.3,59.9,52.6,59.8,53.4,48.3,100,79,53,30.06,29.95,0,-999,0,0.00
2013-1-27,65.9,56.6,47.1,53.0,49.5,47.0,100,79,52,30.07,29.96,0,-999,0,0.00
2013-1-28,57.9,50.1,42.4,48.9,40.4,31.2,86,70,51,30.04,29.93,0,-999,0,0.00
2013-1-29,52.7,43.2,33.8,36.8,28.0,21.4,88,58,30,30.20,30.02,0,-999,0,0.00
2013-1-30,58.3,43.2,29.4,29.5,25.1,18.7,86,54,21,30.33,30.19,0,-999,0,0.00
2013-1-31,63.3,46.3,32.2,35.2,29.4,24.8,81,55,26,30.26,30.09,0,-999,0,0.00
2013-2-1,72.0,52.1,34.6,34.4,31.2,28.2,81,49,20,30.25,30.12,0,-999,0,0.00
2013-2-2,76.5,55.4,38.3,40.4,32.4,24.8,78,47,15,30.26,30.11,0,-999,0,0.00
2013-2-3,71.7,58.2,50.2,41.1,37.2,31.2,66,47,24,30.16,29.97,0,-999,0,0.00
2013-2-4,70.5,54.8,42.7,40.6,38.9,37.2,81,58,31,30.08,29.97,0,-999,0,0.00
2013-2-5,74.0,56.1,39.8,42.9,40.4,36.5,87,59,29,30.07,29.95,0,-999,0,0.00
2013-2-6,71.6,56.6,43.0,43.0,39.3,36.0,86,56,29,30.09,29.94,0,-999,0,0.00
2013-2-7,70.6,54.1,40.2,39.8,34.5,26.8,82,52,21,30.15,29.98,0,-999,0,0.00
2013-2-8,69.6,56.2,42.1,36.7,28.3,18.8,65,37,14,30.00,29.80,0,-999,0,0.00
2013-2-9,54.3,44.7,34.9,38.0,30.5,24.5,95,60,32,30.05,29.85,0,-999,0,0.00
2013-2-10,57.7,42.8,28.8,30.0,26.9,24.3,89,58,28,30.06,29.94,0,-999,0,0.00
2013-2-11,54.4,37.9,28.8,37.9,30.8,23.8,98,77,36,30.17,29.96,0,-999,0,0.00
2013-2-12,52.0,41.0,29.6,36.5,31.3,25.5,99,72,39,30.27,30.15,0,-999,0,0.00
2013-2-13,60.6,43.5,27.6,31.7,27.8,22.0,92,59,24,30.21,30.07,0,-999,0,0.00
2013-2-14,67.0,48.0,32.2,32.4,29.5,27.4,85,53,24,30.16,30.04,0,-999,0,0.00
2013-2-15,72.4,55.4,39.8,32.1,27.3,16.3,72,39,16,30.25,30.12,0,-999,0,0.00
2013-2-16,75.6,60.2,41.2,25.5,17.9,12.4,50,21,9,30.27,30.03,0,-999,0,0.00
2013-2-17,75.0,59.0,44.3,25.5,18.5,11.3,47,22,8,30.04,29.89,0,-999,0,0.00
2013-2-18,71.4,53.7,36.4,28.1,23.1,17.2,62,34,13,30.09,29.93,0,-999,0,0.00
2013-2-19,71.9,57.3,43.3,33.4,21.8,13.1,53,28,11,29.97,29.75,0,-999,0,0.00
2013-2-20,50.8,41.5,33.3,39.1,35.0,30.9,97,78,52,29.97,29.74,0,-999,0,0.00
2013-2-21,56.2,44.0,32.7,37.9,34.1,31.8,97,70,43,30.06,29.93,0,-999,0,0.00
2013-2-22,57.3,45.7,33.5,39.9,34.5,25.7,97,67,41,30.15,29.99,0,-999,0,0.00
2013-2-23,65.8,47.9,33.2,35.2,30.2,25.1,85,55,22,30.15,29.87,0,-999,0,0.00
2013-2-24,52.4,44.3,32.3,33.5,21.4,9.6,84,45,18,30.09,29.83,0,-999,0,0.00
2013-2-25,59.5,43.7,28.0,25.0,20.0,16.6,70,41,22,30.21,30.03,0,-999,0,0.00
2013-2-26,64.0,46.4,30.4,24.9,21.8,16.4,73,42,15,30.09,29.97,0,-999,0,0.00
2013-2-27,65.0,49.6,34.3,23.0,16.1,10.3,60,29,12,30.21,30.07,0,-999,0,0.00
2013-2-28,68.3,49.9,30.9,20.1,17.1,13.3,59,30,12,30.32,30.17,0,-999,0,0.00
2013-3-1,74.1,54.7,36.1,30.4,22.7,17.0,53,32,12,30.34,30.20,0,-999,0,0.00
2013-3-2,83.9,61.2,42.5,31.7,27.5,20.6,56,32,10,30.30,30.12,0,-999,0,0.00
2013-3-3,83.8,63.8,44.4,31.7,27.1,19.7,56,28,11,30.16,29.96,0,-999,0,0.00
2013-3-4,75.0,64.4,49.3,34.6,29.5,18.1,54,27,18,30.12,29.92,0,-999,0,0.00
2013-3-5,79.9,62.2,43.4,35.6,31.5,26.1,63,35,14,30.13,30.00,0,-999,0,0.00
2013-3-6,82.3,66.4,54.1,36.4,32.9,30.4,50,31,16,30.09,29.92,0,-999,0,0.00
2013-3-7,81.2,63.8,44.8,33.6,29.2,20.3,56,30,10,30.02,29.90,0,-999,0,0.00
2013-3-8,68.1,57.6,40.4,48.0,38.8,30.6,79,51,32,30.02,29.83,0,-999,0,0.00
2013-3-9,56.1,48.4,41.5,41.6,36.5,33.5,82,64,47,30.09,29.98,0,-999,0,0.00
2013-3-10,67.0,54.2,43.6,39.3,37.0,33.0,76,54,31,30.17,30.07,0,-999,0,0.00
2013-3-11,75.0,56.0,39.1,35.9,32.0,27.3,76,45,19,30.21,30.04,0,-999,0,0.00
2013-3-12,83.6,61.7,41.6,37.9,32.3,24.8,66,38,11,30.13,30.01,0,-999,0,0.00
2013-3-13,90.7,68.9,45.3,37.6,32.2,24.6,71,32,9,30.17,30.04,0,-999,0,0.00
2013-3-14,93.6,72.0,52.9,34.3,27.9,15.3,47,24,6,30.17,30.02,0,-999,0,0.00
2013-3-15,95.8,72.4,52.6,34.3,28.5,15.9,43,24,5,30.10,29.94,0,-999,0,0.00
2013-3-16,91.8,70.8,47.2,29.2,24.1,14.3,45,20,6,29.98,29.80,0,-999,0,0.00
2013-3-17,85.3,67.8,48.7,29.0,25.7,21.3,38,22,11,29.98,29.86,0,-999,0,0.00
2013-3-18,85.3,67.0,48.6,35.4,28.6,22.2,46,26,10,30.05,29.93,0,-999,0,0.00
2013-3-19,82.7,67.0,48.8,38.9,32.8,30.6,52,30,16,30.08,29.97,0,-999,0,0.00
2013-3-20,83.3,66.7,52.5,33.8,32.0,30.4,44,29,15,30.08,29.92,0,-999,0,0.00
2013-3-21,80.5,66.8,52.1,39.0,34.9,32.2,50,32,20,29.93,29.78,0,-999,0,0.00
2013-3-22,83.7,68.4,51.3,36.9,33.9,28.4,48,29,16,29.88,29.74,0,-999,0,0.00
2013-3-23,77.9,64.2,48.5,36.0,25.3,8.1,54,26,10,30.04,29.86,0,-999,0,0.00
2013-3-24,79.5,60.5,40.8,18.3,12.3,7.0,36,17,6,30.04,29.90,0,-999,0,0.00
2013-3-25,83.4,64.4,43.2,22.0,17.5,12.3,32,17,8,30.05,29.93,0,-999,0,0.00
2013-3-26,90.9,70.4,52.7,24.3,20.0,13.2,28,16,6,30.03,29.87,0,-999,0,0.00
2013-3-27,88.1,70.0,50.4,29.3,23.7,20.4,34,18,9,30.05,29.92,0,-999,0,0.00
2013-3-28,87.6,69.9,49.7,34.5,25.3,21.5,34,20,10,30.11,29.99,0,-999,0,0.00
2013-3-29,90.2,71.9,55.8,37.2,26.5,16.1,36,20,7,30.14,30.02,0,-999,0,0.00
2013-3-30,85.6,70.1,56.4,31.4,25.9,20.0,35,20,9,30.12,29.97,0,-999,0,0.00
2013-3-31,88.8,70.7,50.2,32.2,28.5,22.0,42,23,11,30.09,29.94,0,-999,0,0.00
2013-4-1,86.0,69.3,49.6,40.1,32.6,23.3,52,28,16,30.06,29.93,0,-999,0,0.00
2013-4-2,81.4,64.9,44.8,28.1,25.2,22.5,45,24,11,30.02,29.91,0,-999,0,0.00
2013-4-3,85.4,66.6,47.1,32.8,27.6,23.8,44,25,11,30.08,29.98,0,-999,0,0.00
2013-4-4,92.7,71.2,51.2,32.1,25.4,14.4,39,21,5,30.13,29.95,0,-999,0,0.00
2013-4-5,91.0,73.3,54.2,34.5,31.3,27.4,39,22,12,30.04,29.90,0,-999,0,0.00
2013-4-6,88.5,71.3,51.2,37.8,33.6,29.0,45,26,13,30.04,29.88,0,-999,0,0.00
2013-4-7,89.8,71.7,51.0,39.0,33.9,26.7,55,28,11,29.96,29.81,0,-999,0,0.00
2013-4-8,84.5,69.4,47.0,46.5,36.6,27.8,93,32,15,29.83,29.49,0,-999,0,0.00
2013-4-9,67.8,56.5,45.8,47.1,35.1,25.3,97,50,22,29.94,29.67,0,-999,0,0.00
2013-4-10,71.3,57.4,42.5,35.2,31.9,27.5,73,41,20,30.05,29.91,0,-999,0,0.00
2013-4-11,82.6,63.8,43.4,35.6,30.6,25.8,68,33,13,30.04,29.81,0,-999,0,0.00
2013-4-12,82.3,64.8,51.5,34.5,29.6,24.6,48,28,13,29.90,29.80,0,-999,0,0.00
2013-4-13,74.6,63.4,52.0,32.0,30.3,26.3,45,30,16,29.89,29.81,0,-999,0,0.00
2013-4-14,87.3,72.0,54.3,39.5,33.2,28.3,42,25,12,29.87,29.74,0,-999,0,0.00
2013-4-15,89.4,74.3,60.4,40.7,35.1,29.9,44,26,12,29.87,29.76,0,-999,0,0.00
2013-4-16,86.8,73.0,60.8,41.0,34.2,29.6,37,25,13,29.89,29.77,0,-999,0,0.00
2013-4-17,71.1,61.7,53.7,42.5,27.0,13.1,61,30,13,30.07,29.84,0,-999,0,0.00
2013-4-18,73.8,58.6,38.0,20.5,15.2,11.9,40,19,10,30.15,30.02,0,-999,0,0.00
2013-4-19,83.8,64.0,42.9,15.7,9.6,2.3,31,14,4,30.18,29.97,0,-999,0,0.00
2013-4-20,88.2,66.5,42.7,22.2,17.1,11.9,32,17,7,30.04,29.93,0,-999,0,0.00
2013-4-21,92.8,72.8,49.3,25.1,20.9,16.2,34,16,6,30.09,29.96,0,-999,0,0.00
2013-4-22,96.0,75.8,53.5,27.0,21.3,15.1,31,14,5,30.03,29.84,0,-999,0,0.00
2013-4-23,93.2,75.3,56.0,31.1,24.0,19.0,27,16,7,29.95,29.84,0,-999,0,0.00
2013-4-24,94.2,77.1,59.6,32.3,26.4,21.1,30,17,7,29.99,29.87,0,-999,0,0.00
2013-4-25,86.7,73.2,56.1,35.3,29.5,22.5,32,20,9,30.10,29.91,0,-999,0,0.00
2013-4-26,91.5,71.0,49.3,34.7,28.4,20.8,45,23,9,30.15,30.04,0,-999,0,0.00
2013-4-27,95.1,75.1,53.0,33.5,27.5,23.0,38,19,8,30.12,29.94,0,-999,0,0.00
2013-4-28,98.2,78.5,55.1,32.2,22.1,15.8,35,14,5,29.99,29.83,0,-999,0,0.00
2013-4-29,101.3,80.8,56.7,29.7,20.8,14.4,30,12,4,29.91,29.74,0,-999,0,0.00
2013-4-30,100.2,81.2,58.1,30.8,23.7,19.2,27,13,6,29.89,29.77,0,-999,0,0.00
2013-5-1,94.4,77.6,57.8,30.2,24.4,16.5,27,15,6,30.06,29.86,0,-999,0,0.00
2013-5-2,96.3,79.0,57.5,27.2,20.6,11.2,29,12,6,30.16,30.01,0,-999,0,0.00
2013-5-3,88.9,74.2,61.0,25.9,21.4,17.2,24,14,7,30.13,29.85,0,-999,0,0.00
2013-5-4,95.8,78.4,60.0,31.2,23.9,17.4,25,14,6,29.91,29.76,0,-999,0,0.00
2013-5-5,92.7,78.0,62.9,47.7,31.5,23.5,57,19,9,30.00,29.83,0,-999,0,0.00
2013-5-6,88.6,72.8,57.9,49.1,41.3,34.1,61,35,16,30.04,29.93,0,-999,0,0.00
2013-5-7,86.8,70.6,55.2,45.2,37.3,25.7,53,33,11,30.06,29.91,0,-999,0,0.00
2013-5-8,85.0,69.8,52.6,44.7,40.0,35.3,60,36,17,30.10,29.95,0,-999,0,0.00
2013-5-9,86.6,72.6,55.2,44.7,36.4,29.0,57,30,13,30.06,29.93,0,-999,0,0.00
2013-5-10,90.1,73.1,54.1,43.5,38.4,33.7,54,31,14,30.11,29.96,0,-999,0,0.00
2013-5-11,89.3,77.3,62.2,41.3,37.6,33.5,38,25,16,30.14,30.03,0,-999,0,0.00
2013-5-12,93.3,79.6,65.6,41.3,36.0,31.1,34,22,11,30.19,30.00,0,-999,0,0.00
2013-5-13,98.2,83.2,66.9,37.0,30.8,20.4,25,16,9,30.13,29.96,0,-999,0,0.00
2013-5-14,101.4,85.6,71.1,40.0,34.4,21.6,30,17,8,30.05,29.89,0,-999,0,0.00
2013-5-15,101.7,83.3,65.1,39.0,35.9,33.5,33,19,9,30.07,29.90,0,-999,0,0.00
2013-5-16,101.5,83.1,61.8,37.0,30.7,23.5,30,17,6,30.03,29.84,0,-999,0,0.00
2013-5-17,97.4,82.0,63.5,36.0,31.0,24.3,29,17,7,29.98,29.86,0,-999,0,0.00
2013-5-18,94.6,79.5,61.6,44.8,30.9,25.7,39,18,9,30.01,29.89,0,-999,0,0.00
2013-5-19,94.4,78.7,58.6,46.1,38.3,30.4,52,27,10,30.00,29.84,0,-999,0,0.00
2013-5-20,96.6,80.5,62.1,42.8,33.6,24.4,44,21,8,29.99,29.86,0,-999,0,0.00
2013-5-21,99.0,79.4,57.4,30.2,23.0,17.3,30,14,5,29.99,29.83,0,-999,0,0.00
2013-5-22,102.1,83.1,59.5,33.0,28.5,24.9,29,15,7,29.91,29.75,0,-999,0,0.00
2013-5-23,101.2,83.9,65.9,36.8,32.5,25.3,29,17,7,29.94,29.83,0,-999,0,0.00
2013-5-24,101.6,83.6,64.0,45.1,32.3,18.6,39,19,5,30.02,29.89,0,-999,0,0.00
2013-5-25,100.9,83.1,66.2,39.9,28.7,13.4,33,17,4,30.01,29.91,0,-999,0,0.00
2013-5-26,99.4,80.6,58.8,33.2,21.7,10.1,30,14,4,30.04,29.92,0,-999,0,0.00
2013-5-27,100.9,80.5,57.6,33.6,21.7,-0.3,27,13,2,29.98,29.80,0,-999,0,0.00
2013-5-28,99.0,79.9,57.2,36.3,27.9,20.2,30,16,6,29.86,29.70,0,-999,0,0.00
2013-5-29,97.3,81.3,61.6,52.0,38.4,33.2,43,23,11,29.87,29.73,0,-999,0,0.00
2013-5-30,101.1,85.0,68.2,57.2,46.4,37.0,51,30,12,29.93,29.82,0,-999,0,0.00
2013-5-31,101.6,86.3,71.9,59.0,49.6,38.4,60,32,12,29.97,29.84,0,-999,0,0.00
2013-6-1,108.9,89.3,65.6,45.0,39.7,31.5,38,20,7,29.95,29.79,0,-999,0,0.00
2013-6-2,110.2,90.9,68.7,48.7,40.3,30.3,43,19,7,29.91,29.77,0,-999,0,0.00
2013-6-3,106.3,89.1,68.1,42.4,33.0,21.1,31,15,5,29.94,29.81,0,-999,0,0.00
2013-6-4,105.4,88.5,67.8,46.7,38.1,30.6,34,18,8,29.96,29.85,0,-999,0,0.00
2013-6-5,104.6,86.1,63.9,39.6,30.2,22.0,33,15,5,29.99,29.84,0,-999,0,0.00
2013-6-6,107.8,89.3,63.9,41.7,32.6,29.1,30,15,7,29.93,29.79,0,-999,0,0.00
2013-6-7,111.5,91.1,67.2,38.6,31.9,26.0,28,13,5,29.91,29.75,0,-999,0,0.00
2013-6-8,108.4,90.8,66.5,43.0,31.0,22.1,28,14,5,29.94,29.83,0,-999,0,0.00
2013-6-9,108.7,90.8,70.0,41.1,32.7,22.0,29,15,5,30.01,29.86,0,-999,0,0.00
2013-6-10,110.6,91.7,68.8,42.2,34.3,23.2,33,15,4,30.00,29.85,0,-999,0,0.00
2013-6-11,110.9,92.8,67.4,41.9,31.3,20.6,29,13,4,29.99,29.87,0,-999,0,0.00
2013-6-12,110.7,92.6,72.5,43.1,35.5,31.5,26,14,7,30.04,29.87,0,-999,0,0.00
2013-6-13,107.4,92.3,74.1,53.6,46.0,41.5,32,21,11,30.02,29.86,0,-999,0,0.00
2013-6-14,107.1,92.1,75.0,55.6,51.2,44.0,44,26,15,29.98,29.81,0,-999,0,0.00
2013-6-15,106.1,91.2,75.5,66.4,51.0,46.4,51,26,15,29.99,29.86,0,-999,0,0.00
2013-6-16,109.2,91.6,72.6,53.8,44.7,31.9,44,22,9,30.02,29.89,0,-999,0,0.00
2013-6-17,108.0,90.1,66.9,39.5,32.6,27.1,31,14,6,30.03,29.85,0,-999,0,0.00
2013-6-18,110.3,89.3,65.8,33.7,16.8,-11.4,24,10,1,29.96,29.83,0,-999,0,0.00
2013-6-19,109.0,90.3,67.7,36.6,26.3,16.4,22,11,4,29.90,29.77,0,-999,0,0.00
2013-6-20,108.1,89.0,65.7,40.7,27.2,11.6,29,13,3,29.95,29.82,0,-999,0,0.00
2013-6-21,108.2,89.8,70.8,44.4,33.3,19.6,31,16,4,29.97,29.84,0,-999,0,0.00
2013-6-22,107.8,89.1,67.0,37.2,30.1,19.3,27,14,4,29.99,29.81,0,-999,0,0.00
2013-6-23,105.9,87.7,65.4,40.8,30.8,16.9,26,15,4,29.94,29.77,0,-999,0,0.00
2013-6-24,105.0,88.0,66.7,41.2,31.2,17.9,29,14,5,29.96,29.84,0,-999,0,0.00
2013-6-25,106.0,88.0,65.4,42.3,30.2,15.5,37,16,4,30.04,29.91,0,-999,0,0.00
2013-6-26,107.1,89.3,65.2,36.8,29.5,23.9,28,13,5,30.11,29.97,0,-999,0,0.00
2013-6-27,108.1,92.2,71.7,49.5,41.3,28.9,36,19,8,30.14,29.97,0,-999,0,0.00
2013-6-28,113.8,94.3,72.9,47.2,39.8,34.5,28,16,6,30.04,29.86,0,-999,0,0.00
2013-6-29,114.1,98.3,80.4,52.8,42.2,38.1,26,15,8,29.98,29.83,0,-999,0,0.00
2013-6-30,113.8,96.3,80.3,63.5,53.8,47.0,56,27,11,30.05,29.79,0,-999,0,0.00
2013-7-1,111.1,91.3,79.6,65.7,58.5,52.3,53,36,15,30.01,29.86,0,-999,0,0.00
2013-7-2,105.2,89.6,70.2,68.9,59.2,55.5,91,39,21,30.14,29.91,0,-999,0,0.00
2013-7-3,108.2,93.7,78.6,57.0,54.1,48.2,45,28,17,30.02,29.79,0,-999,0,0.00
2013-7-4,108.1,94.6,80.8,60.8,56.1,51.5,48,29,16,29.95,29.79,0,-999,0,0.00
2013-7-5,105.0,86.1,72.7,71.9,64.0,59.5,93,52,24,29.97,29.83,0,-999,0,0.00
2013-7-7,110.9,90.6,77.4,66.6,61.8,55.2,65,41,17,29.94,29.81,0,-999,0,0.00
2013-7-8,107.3,92.0,78.0,68.2,60.9,56.5,72,36,21,30.02,29.89,0,-999,0,0.00
2013-7-9,102.0,90.0,79.2,69.3,65.5,61.4,71,46,29,30.13,29.94,0,-999,0,0.00
2013-7-10,100.8,83.4,71.8,74.2,68.6,64.9,94,64,32,30.10,29.95,0,-999,0,0.00
2013-7-11,96.2,82.9,71.0,75.6,69.3,65.6,98,66,40,30.07,29.93,0,-999,0,0.00
2013-7-12,95.9,84.4,76.4,70.2,65.7,60.4,78,55,31,30.05,29.92,0,-999,0,0.00
2013-7-13,102.0,88.0,75.7,67.4,63.3,59.3,74,47,27,29.99,29.91,0,-999,0,0.00
2013-7-14,105.7,90.1,78.1,68.8,63.4,61.2,63,43,25,30.02,29.86,0,-999,0,0.00
2013-7-15,106.0,87.1,74.7,72.8,64.9,60.2,86,51,23,29.97,29.82,0,-999,0,0.00
2013-7-16,93.4,81.6,74.7,69.7,66.9,64.8,82,62,40,30.10,29.94,0,-999,0,0.00
2013-7-17,99.9,82.9,73.7,71.7,64.4,57.6,87,58,25,30.11,30.01,0,-999,0,0.00
2013-7-18,98.4,87.4,76.2,61.6,58.9,55.0,56,39,25,30.07,29.91,0,-999,0,0.00
2013-7-19,96.4,85.4,78.2,67.0,62.4,59.9,61,47,32,30.04,29.88,0,-999,0,0.00
2013-7-20,95.8,80.2,68.3,74.0,67.9,65.6,99,68,40,30.00,29.85,0,-999,0,0.00
2013-7-21,96.0,82.1,72.7,74.1,69.6,64.3,100,69,37,30.03,29.92,0,-999,0,0.00
2013-7-22,96.8,83.3,71.1,70.3,66.6,63.0,93,60,35,30.08,29.96,0,-999,0,0.00
2013-7-23,99.4,86.3,73.6,66.7,63.0,61.0,71,48,30,30.09,29.92,0,-999,0,0.00
2013-7-24,95.4,85.0,76.0,71.9,65.4,62.5,84,53,35,30.03,29.93,0,-999,0,0.00
2013-7-25,98.1,82.7,76.5,71.5,68.1,64.3,84,62,37,30.09,29.99,0,-999,0,0.00
2013-7-26,101.8,84.1,73.9,70.4,68.3,64.2,82,61,32,30.16,30.06,0,-999,0,0.00
2013-7-27,101.3,85.1,75.6,69.5,66.8,63.5,76,56,34,30.11,29.93,0,-999,0,0.00
2013-7-28,104.8,89.4,73.2,67.9,59.3,49.3,77,41,19,29.98,29.86,0,-999,0,0.00
2013-7-29,103.2,89.2,70.9,55.7,52.1,48.9,51,30,18,30.09,29.96,0,-999,0,0.00
2013-7-30,106.3,91.0,73.2,60.2,56.5,53.5,59,33,18,30.18,30.03,0,-999,0,0.00
2013-7-31,106.4,91.6,79.1,63.5,57.7,53.4,55,33,19,30.13,30.00,0,-999,0,0.00
2013-8-1,95.6,85.8,80.5,67.1,62.5,59.0,63,46,32,30.07,29.96,0,-999,0,0.00
2013-8-2,100.4,85.9,79.0,66.8,64.2,62.0,60,49,31,30.05,29.96,0,-999,0,0.00
2013-8-3,103.8,88.4,75.6,64.1,59.9,56.7,59,40,22,30.08,29.95,0,-999,0,0.00
2013-8-4,102.2,88.1,78.7,64.7,60.6,56.5,57,41,26,30.10,29.96,0,-999,0,0.00
2013-8-5,99.6,83.0,69.2,71.3,61.6,55.0,96,52,23,30.12,29.96,0,-999,0,0.00
2013-8-6,86.2,75.9,68.7,70.6,66.1,60.9,98,73,48,30.12,30.01,0,-999,0,0.00
2013-8-7,98.3,82.7,67.6,67.5,60.8,53.2,92,53,23,30.11,29.96,0,-999,0,0.00
2013-8-8,103.2,85.7,70.4,61.2,50.8,37.3,67,35,11,30.05,29.91,0,-999,0,0.00
2013-8-9,104.8,86.9,65.1,52.8,47.3,41.4,58,28,14,30.03,29.90,0,-999,0,0.00
2013-8-10,104.2,87.9,69.4,49.9,44.2,37.9,40,23,13,30.09,29.95,0,-999,0,0.00
2013-8-11,104.3,87.7,71.6,61.1,54.8,40.5,49,33,22,30.06,29.90,0,-999,0,0.00
2013-8-12,107.2,89.9,72.3,62.1,51.0,37.2,63,30,13,30.02,29.89,0,-999,0,0.00
2013-8-13,106.8,88.8,68.4,49.9,42.5,39.0,45,22,10,30.08,29.92,0,-999,0,0.00
2013-8-14,107.7,89.9,75.7,62.4,51.0,40.0,45,28,13,30.05,29.89,0,-999,0,0.00
2013-8-15,107.2,90.6,75.1,70.1,58.9,53.9,84,37,18,30.07,29.92,0,-999,0,0.00
2013-8-16,108.0,91.3,76.6,65.8,59.5,51.1,60,37,15,30.06,29.91,0,-999,0,0.00
2013-8-17,109.7,92.7,75.5,63.3,58.1,47.1,63,34,16,30.07,29.86,0,-999,0,0.00
2013-8-18,98.1,85.9,79.0,61.3,57.7,52.6,52,39,26,30.07,29.96,0,-999,0,0.00
2013-8-19,109.0,90.7,75.3,63.6,58.0,51.7,61,35,16,30.06,29.91,0,-999,0,0.00
2013-8-20,106.8,86.5,73.4,67.2,61.7,56.9,78,45,21,30.04,29.91,0,-999,0,0.00
2013-8-21,97.0,84.2,76.2,66.4,61.6,57.3,65,48,27,30.05,29.93,0,-999,0,0.00
2013-8-22,103.4,84.9,73.6,71.6,62.1,57.5,79,49,23,30.06,29.88,0,-999,0,0.00
2013-8-23,102.5,83.9,68.7,67.7,61.4,53.7,83,50,22,30.01,29.84,0,-999,0,0.00
2013-8-24,96.6,81.3,71.0,72.3,63.2,57.5,99,57,29,30.05,29.92,0,-999,0,0.00
2013-8-25,96.1,78.2,72.3,74.6,70.6,64.8,99,79,37,30.08,29.98,0,-999,0,0.00
2013-8-26,100.6,79.3,71.3,75.9,69.9,64.5,100,75,34,30.07,29.91,0,-999,0,0.00
2013-8-27,103.4,85.2,68.3,70.1,63.5,54.6,100,55,21,30.00,29.85,0,-999,0,0.00
2013-8-28,102.1,84.3,74.1,72.7,64.3,60.3,91,54,26,30.06,29.90,0,-999,0,0.00
2013-8-29,88.1,77.5,72.2,74.5,70.1,67.9,96,78,54,30.18,30.04,0,-999,0,0.00
2013-8-30,86.2,77.8,73.1,73.7,70.1,67.3,97,78,54,30.15,30.02,0,-999,0,0.00
2013-8-31,99.4,85.2,72.5,71.6,67.3,60.8,93,59,31,30.10,29.95,0,-999,0,0.00
2013-9-1,101.8,87.0,71.8,68.6,65.1,58.7,84,52,27,30.03,29.89,0,-999,0,0.00
2013-9-2,98.8,84.3,75.3,65.7,62.5,56.6,70,50,25,30.08,29.89,0,-999,0,0.00
2013-9-3,107.8,84.3,73.3,67.1,63.9,59.2,77,53,22,30.03,29.94,0,-999,0,0.00
2013-9-4,104.1,88.1,69.9,68.3,58.1,51.3,78,40,19,30.06,29.93,0,-999,0,0.00
2013-9-5,105.2,89.8,74.5,61.1,54.8,49.9,58,33,17,30.05,29.92,0,-999,0,0.00
2013-9-6,103.0,86.6,74.2,62.7,58.0,55.3,57,39,22,30.05,29.92,0,-999,0,0.00
2013-9-7,88.6,80.2,70.7,67.6,64.1,61.0,89,59,43,30.08,29.94,0,-999,0,0.00
2013-9-8,89.0,76.1,72.0,72.3,67.5,62.6,93,75,51,30.00,29.87,0,-999,0,0.00
2013-9-9,88.2,76.5,69.2,70.9,67.3,64.5,100,74,48,29.96,29.82,0,-999,0,0.00
2013-9-10,90.0,77.0,64.8,69.2,62.7,58.0,100,65,35,30.02,29.90,0,-999,0,0.00
2013-9-11,93.9,79.3,64.2,65.8,60.0,54.6,94,56,29,30.09,29.95,0,-999,0,0.00
2013-9-12,97.9,82.7,66.2,63.5,58.7,52.9,78,48,26,30.00,29.83,0,-999,0,0.00
2013-9-13,99.1,86.1,74.0,66.8,61.9,55.5,71,46,25,29.92,29.74,0,-999,0,0.00
2013-9-14,102.5,87.9,76.0,65.0,58.8,49.9,64,40,17,29.87,29.74,0,-999,0,0.00
2013-9-15,103.6,88.0,75.2,61.4,56.3,51.0,55,36,19,29.92,29.82,0,-999,0,0.00
2013-9-16,101.2,90.1,78.6,61.7,59.0,53.5,52,36,21,29.95,29.83,0,-999,0,0.00
2013-9-17,103.5,90.8,80.7,62.2,58.0,44.4,49,34,19,29.93,29.76,0,-999,0,0.00
2013-9-18,103.2,88.0,70.5,53.7,47.6,40.9,50,27,12,29.90,29.76,0,-999,0,0.00
2013-9-19,101.8,84.7,65.9,54.9,48.4,40.9,53,30,18,29.91,29.78,0,-999,0,0.00
2013-9-20,102.9,85.2,67.3,57.9,49.2,40.0,46,30,17,29.96,29.83,0,-999,0,0.00
2013-9-21,101.2,86.2,73.6,60.0,56.5,52.2,57,38,21,29.97,29.77,0,-999,0,0.00
2013-9-22,95.9,82.4,65.7,66.3,54.8,38.5,63,40,23,29.88,29.75,0,-999,0,0.00
2013-9-23,91.7,70.4,56.2,45.6,39.9,35.5,51,35,17,30.01,29.87,0,-999,0,0.00
2013-9-24,98.9,79.5,59.5,45.4,39.3,31.5,44,25,12,30.05,29.89,0,-999,0,0.00
2013-9-25,97.8,78.9,61.0,35.8,32.3,26.9,38,20,9,29.93,29.77,0,-999,0,0.00
2013-9-26,94.9,79.1,61.7,58.8,41.0,27.0,59,27,17,29.86,29.74,0,-999,0,0.00
2013-9-27,82.2,72.7,58.1,60.7,45.1,24.2,67,40,16,30.03,29.84,0,-999,0,0.00
2013-9-28,88.5,71.9,52.7,46.4,36.4,26.0,38,28,19,30.11,29.99,0,-999,0,0.00
2013-9-29,92.1,70.3,57.2,44.6,38.7,35.6,48,33,18,30.15,30.01,0,-999,0,0.00
2013-9-30,93.9,74.5,54.7,42.5,36.3,29.5,52,28,10,30.07,29.91,0,-999,0,0.00
2013-10-1,94.2,75.2,55.0,42.8,37.4,31.7,43,27,14,30.06,29.92,0,-999,0,0.00
2013-10-2,92.0,75.6,57.5,49.2,43.1,39.9,55,33,17,30.06,29.89,0,-999,0,0.00
2013-10-3,94.4,76.6,61.1,55.6,44.7,35.2,60,35,15,29.96,29.80,0,-999,0,0.00
2013-10-4,73.7,67.3,61.8,45.3,31.8,19.6,45,29,14,30.06,29.91,0,-999,0,0.00
2013-10-5,84.7,69.1,51.5,29.6,22.2,14.8,34,18,9,30.17,30.06,0,-999,0,0.00
2013-10-6,89.1,72.2,50.4,28.3,23.9,18.3,33,17,9,30.17,30.04,0,-999,0,0.00
2013-10-7,97.0,77.9,63.8,37.8,29.7,24.9,26,17,11,30.09,29.94,0,-999,0,0.00
2013-10-8,90.9,74.7,55.5,39.1,33.6,29.1,43,23,14,30.00,29.84,0,-999,0,0.00
2013-10-9,88.6,75.3,62.4,49.6,40.5,30.9,53,29,16,29.88,29.75,0,-999,0,0.00
2013-10-10,71.7,62.9,50.9,52.3,47.0,41.4,70,56,38,30.02,29.82,0,-999,0,0.00
2013-10-11,78.1,61.6,46.0,44.8,40.3,34.1,77,49,26,30.06,29.94,0,-999,0,0.00
2013-10-12,85.8,66.3,48.4,41.2,36.9,33.3,58,36,19,30.03,29.89,0,-999,0,0.00
2013-10-13,88.6,71.0,52.7,48.7,40.6,35.4,54,35,18,30.04,29.93,0,-999,0,0.00
2013-10-14,83.7,67.7,50.8,45.7,40.4,34.3,66,39,21,30.10,29.96,0,-999,0,0.00
2013-10-15,83.4,67.3,52.0,42.6,34.3,28.0,51,31,17,30.02,29.91,0,-999,0,0.00
2013-10-16,79.8,62.4,46.8,31.9,25.1,15.7,48,27,9,30.13,30.01,0,-999,0,0.00
2013-10-17,81.5,61.3,44.4,27.2,23.5,16.8,42,25,9,30.11,29.94,0,-999,0,0.00
2013-10-18,82.2,62.7,43.6,30.6,26.7,24.1,49,27,13,30.06,29.97,0,-999,0,0.00
2013-10-19,87.0,64.5,44.9,29.1,23.5,16.9,44,23,8,30.11,29.96,0,-999,0,0.00
2013-10-20,85.6,64.6,45.6,26.9,21.9,18.4,36,21,9,30.03,29.90,0,-999,0,0.00
2013-10-21,85.7,65.4,48.0,25.9,21.6,17.9,36,20,9,30.07,29.97,0,-999,0,0.00
2013-10-22,89.4,70.1,49.7,28.1,22.9,19.4,31,18,8,30.11,29.94,0,-999,0,0.00
2013-10-23,92.7,74.9,59.6,34.6,29.7,26.5,29,19,10,30.03,29.90,0,-999,0,0.00
2013-10-24,92.4,72.8,55.1,36.5,29.4,25.4,32,21,12,30.08,29.92,0,-999,0,0.00
2013-10-25,86.7,67.5,49.0,35.1,31.2,26.6,46,28,13,30.13,30.03,0,-999,0,0.00
2013-10-26,87.1,67.7,51.2,34.5,31.5,28.7,43,28,13,30.17,30.03,0,-999,0,0.00
2013-10-27,90.5,73.2,56.9,37.7,31.7,24.7,40,23,10,30.06,29.85,0,-999,0,0.00
2013-10-28,83.3,68.4,53.5,37.4,34.6,30.0,46,30,14,29.98,29.86,0,-999,0,0.00
2013-10-29,81.7,69.1,52.0,40.0,36.6,33.7,55,31,18,30.00,29.88,0,-999,0,0.00
2013-10-30,70.2,56.7,44.3,41.1,35.2,27.7,70,46,29,30.09,29.94,0,-999,0,0.00
2013-10-31,74.8,56.0,41.3,33.7,27.4,20.8,60,36,14,30.15,30.02,0,-999,0,0.00
2013-11-1,78.5,58.5,40.5,28.9,26.3,23.1,53,32,14,30.18,30.04,0,-999,0,0.00
2013-11-2,86.9,70.2,49.7,51.5,25.9,21.3,70,22,9,30.10,29.90,0,-999,0,0.00
2013-11-3,82.4,67.2,54.9,53.6,47.3,38.8,77,52,26,30.00,29.80,0,-999,0,0.00
2013-11-4,80.8,65.0,51.5,53.4,45.7,41.2,72,52,27,29.91,29.75,0,-999,0,0.00
2013-11-5,71.2,59.7,47.8,47.1,43.5,39.0,84,57,31,30.15,29.89,0,-999,0,0.00
2013-11-6,75.3,59.6,44.0,40.2,29.1,21.2,72,35,14,30.28,30.13,0,-999,0,0.00
2013-11-7,80.8,67.5,55.4,32.7,25.7,14.8,29,20,16,30.23,30.06,0,-999,0,0.00
2013-11-8,83.0,66.7,49.9,39.3,34.7,29.9,48,31,19,30.12,29.99,0,-999,0,0.00
2013-11-9,82.4,64.6,48.3,41.4,36.5,32.2,54,37,22,30.15,30.03,0,-999,0,0.00
2013-11-10,86.4,66.1,48.5,40.9,37.1,34.0,59,37,19,30.18,30.04,0,-999,0,0.00
2013-11-11,88.0,68.0,49.7,43.0,38.0,34.0,55,35,18,30.14,30.00,0,-999,0,0.00
2013-11-12,86.2,72.4,56.3,46.1,41.4,36.2,47,33,22,30.23,30.10,0,-999,0,0.00
2013-11-13,79.8,69.4,62.9,46.2,44.1,42.0,49,40,30,30.21,30.01,0,-999,0,0.00
2013-11-14,81.8,67.4,56.0,46.5,42.1,37.5,55,41,22,30.08,29.89,0,-999,0,0.00
2013-11-15,77.1,66.8,55.2,55.8,48.4,36.5,69,52,35,29.94,29.68,0,-999,0,0.00
2013-11-16,76.1,64.8,53.8,52.9,46.4,34.5,77,54,23,29.95,29.77,0,-999,0,0.00
2013-11-17,78.4,62.5,49.1,50.2,47.4,44.5,88,60,32,30.10,29.94,0,-999,0,0.00
2013-11-18,79.6,63.3,50.8,50.2,45.6,42.2,76,55,31,30.13,29.99,0,-999,0,0.00
2013-11-19,79.0,61.5,47.2,43.8,41.2,36.4,76,50,22,30.05,29.89,0,-999,0,0.00
2013-11-20,76.5,61.7,48.0,43.4,40.8,38.5,71,48,26,29.95,29.84,0,-999,0,0.00
2013-11-21,74.9,62.6,52.2,58.2,45.5,37.2,96,55,35,29.98,29.88,0,-999,0,0.00
2013-11-22,64.6,54.6,46.9,57.8,51.8,46.8,100,90,68,30.01,29.83,0,-999,0,0.00
2013-11-23,55.3,49.8,46.5,50.5,47.3,44.4,100,91,74,30.09,30.00,0,-999,0,0.00
2013-11-24,59.8,50.3,42.3,46.4,43.2,39.6,97,77,55,30.17,30.06,0,-999,0,0.00
2013-11-25,58.6,46.6,36.9,44.0,40.9,36.9,100,82,54,30.23,30.12,0,-999,0,0.00
2013-11-26,67.0,54.9,39.8,41.8,34.3,25.9,98,50,28,30.28,30.12,0,-999,0,0.00
2013-11-27,63.8,56.6,51.8,29.2,26.5,24.3,39,31,26,30.16,30.01,0,-999,0,0.00
2013-11-28,71.7,56.4,47.8,41.3,33.3,27.2,71,43,28,30.12,30.00,0,-999,0,0.00
2013-11-29,74.4,57.8,45.3,43.5,40.8,37.7,80,56,31,30.21,30.07,0,-999,0,0.00
2013-11-30,71.6,55.8,44.2,47.6,44.6,41.3,89,68,38,30.20,30.07,0,-999,0,0.00
2013-12-1,69.7,56.2,46.7,49.1,45.5,42.7,89,70,40,30.23,30.12,0,-999,0,0.00
2013-12-2,70.7,54.3,42.3,46.2,42.0,35.1,96,67,28,30.18,29.94,0,-999,0,0.00
2013-12-3,73.3,58.3,44.5,43.1,37.7,28.5,78,49,21,29.97,29.77,0,-999,0,0.00
2013-12-4,43.8,43.7,43.6,43.7,43.6,43.6,97,96,95,29.93,29.89,0,-999,0,0.00
2013-12-5,51.3,44.6,33.7,43.6,36.2,26.3,98,73,52,30.10,29.03,0,-999,0,0.00
2013-12-6,52.6,40.2,29.1,31.9,28.2,24.5,91,65,33,30.19,30.06,0,-999,0,0.00
2013-12-7,58.0,42.1,28.8,32.2,28.3,25.4,91,62,30,30.11,29.96,0,-999,0,0.00
2013-12-8,57.8,48.2,38.5,41.4,38.1,32.1,82,68,52,30.14,30.02,0,-999,0,0.00
2013-12-9,51.0,40.4,30.4,33.3,25.3,20.0,86,57,30,30.29,30.07,0,-999,0,0.00
2013-12-10,61.2,44.4,28.5,31.0,25.0,17.1,83,50,22,30.28,30.08,0,-999,0,0.00
2013-12-11,72.1,53.9,40.1,44.4,33.2,24.4,65,46,33,30.19,30.09,0,-999,0,0.00
2013-12-12,70.8,58.0,43.0,44.9,34.7,29.8,68,42,35,30.20,30.05,0,-999,0,0.00
2013-12-13,62.8,47.0,35.1,35.4,32.9,30.8,85,61,32,30.19,30.09,0,-999,0,0.00
2013-12-14,63.6,46.5,34.6,33.9,30.5,27.0,86,58,25,30.29,30.15,0,-999,0,0.00
2013-12-15,67.3,50.4,33.5,31.2,28.5,24.5,80,47,20,30.29,30.16,0,-999,0,0.00
2013-12-16,77.6,57.8,42.9,36.7,29.4,25.5,57,36,14,30.24,30.12,0,-999,0,0.00
2013-12-17,81.3,60.5,44.1,36.4,30.5,25.6,59,34,15,30.25,30.09,0,-999,0,0.00
2013-12-18,77.9,63.0,52.4,38.2,30.2,25.9,46,30,16,30.11,29.89,0,-999,0,0.00
2013-12-19,70.4,60.0,47.7,38.4,30.8,27.4,61,34,20,29.92,29.72,0,-999,0,0.00
2013-12-20,55.8,47.6,43.7,44.6,40.5,34.0,95,76,51,29.87,29.69,0,-999,0,0.00
2013-12-21,54.9,47.4,39.3,43.2,39.6,37.1,93,75,52,30.08,29.83,0,-999,0,0.00
2013-12-22,58.7,44.7,33.9,42.6,37.1,33.5,99,76,45,30.27,30.06,0,-999,0,0.00
2013-12-23,64.2,48.2,34.3,37.6,33.8,27.4,95,62,27,30.34,30.22,0,-999,0,0.00
2013-12-24,67.4,52.7,39.4,33.8,29.4,24.5,77,42,24,30.25,30.11,0,-999,0,0.00
2013-12-25,68.2,51.2,35.3,36.9,31.4,26.3,84,51,26,30.26,30.13,0,-999,0,0.00
2013-12-26,65.4,54.6,45.8,28.5,26.0,24.0,44,33,22,30.23,30.11,0,-999,0,0.00
2013-12-27,68.2,56.7,48.3,26.5,23.9,20.9,40,28,18,30.22,30.08,0,-999,0,0.00
2013-12-28,65.0,53.1,40.0,33.0,27.7,24.1,56,38,22,30.15,29.97,0,-999,0,0.00
2013-12-29,64.9,49.7,35.6,33.9,31.4,28.5,78,52,26,30.15,29.96,0,-999,0,0.00
2013-12-30,66.2,48.3,33.7,33.0,30.3,28.6,81,53,24,30.27,30.14,0,-999,0,0.00
2013-12-31,71.4,51.9,37.7,30.5,27.8,24.2,73,43,17,30.24,30.07,0,-999,0,0.00
2014-1-1,70.1,50.5,36.8,32.0,29.3,26.0,71,47,23,30.18,30.07,0,-999,0,0.00
2014-1-2,74.6,57.6,39.0,31.7,28.3,26.2,72,36,17,30.19,30.05,0,-999,0,0.00